Time;durP1;ratioP1;P1;durP2;ratioP2;P2;SDS_P1;SDS_P2;PMS_P1;PMS_P2;Temp;Humidity;BMP_temperature;BMP_pressure;BME280_temperature;BME280_humidity;BME280_pressure;Samples;Min_cycle;Max_cycle;Signal;HPM_P1;HPM_P2
2022/09/05 00:02:01;;;;;;;10.05;3.03;;;19.00;99.90;;;;;;5017397;28;20048;-91
2022/09/05 00:04:52;;;;;;;4.53;2.97;;;19.00;99.90;;;;;;5017201;28;20402;-91
2022/09/05 00:07:24;;;;;;;6.68;3.20;;;18.90;99.90;;;;;;4999182;28;20069;-91
2022/09/05 00:09:57;;;;;;;6.15;3.10;;;18.90;99.90;;;;;;4981753;28;20050;-91
2022/09/05 00:12:24;;;;;;;5.72;3.30;;;18.90;99.90;;;;;;4981437;28;20185;-92
2022/09/05 00:15:17;;;;;;;3.40;2.63;;;18.80;99.90;;;;;;5029113;28;20049;-91
2022/09/05 00:17:52;;;;;;;5.88;3.33;;;18.80;99.90;;;;;;5017247;28;20045;-91
2022/09/05 00:20:22;;;;;;;4.22;3.20;;;18.80;99.90;;;;;;5001062;28;20057;-92
2022/09/05 00:23:05;;;;;;;5.38;3.00;;;18.80;99.90;;;;;;5000737;28;20562;-90
2022/09/05 00:25:48;;;;;;;6.72;3.03;;;18.70;99.90;;;;;;5017231;28;20049;-90
2022/09/05 00:28:17;;;;;;;5.43;3.42;;;18.70;99.90;;;;;;5016712;28;20435;-92
2022/09/05 00:31:10;;;;;;;3.60;3.05;;;18.60;99.90;;;;;;5000240;28;20170;-91
2022/09/05 00:33:35;;;;;;;7.30;3.28;;;18.60;99.90;;;;;;4992370;28;20077;-91
2022/09/05 00:36:35;;;;;;;5.93;3.22;;;18.60;99.90;;;;;;5016986;28;20414;-91
2022/09/05 00:39:06;;;;;;;6.28;3.08;;;18.50;99.90;;;;;;4997137;28;20554;-91
2022/09/05 00:41:32;;;;;;;6.78;3.42;;;18.40;99.90;;;;;;4988803;28;20089;-90
2022/09/05 00:44:00;;;;;;;4.88;3.33;;;18.40;99.90;;;;;;4978804;28;20042;-90
2022/09/05 00:46:35;;;;;;;5.88;3.40;;;18.30;99.90;;;;;;4996790;28;20504;-91
2022/09/05 00:49:16;;;;;;;9.80;3.58;;;18.30;99.90;;;;;;5015548;28;20045;-91
2022/09/05 00:51:54;;;;;;;4.10;3.33;;;18.20;99.90;;;;;;5000222;28;20127;-90
2022/09/05 00:54:41;;;;;;;4.45;3.65;;;18.20;99.90;;;;;;4996912;28;20053;-90
2022/09/05 00:57:29;;;;;;;6.50;3.55;;;18.20;99.90;;;;;;4997360;28;20125;-91
2022/09/05 01:00:09;;;;;;;6.65;3.53;;;18.20;99.90;;;;;;4984912;28;20112;-91
2022/09/05 01:03:20;;;;;;;3.60;3.30;;;18.10;99.90;;;;;;5016470;28;20499;-90
2022/09/05 01:06:13;;;;;;;7.20;4.07;;;18.10;99.90;;;;;;4996976;28;20073;-91
2022/09/05 01:09:14;;;;;;;4.60;3.75;;;18.10;99.90;;;;;;5000727;28;20041;-91
2022/09/05 01:11:45;;;;;;;;;;;18.00;99.90;;;;;;4953755;28;20047;-91
2022/09/05 01:14:39;;;;;;;5.70;3.60;;;18.00;99.90;;;;;;5005686;28;20429;-90
2022/09/05 01:17:11;;;;;;;5.13;4.38;;;18.00;99.90;;;;;;4983069;28;20097;-90
2022/09/05 01:19:51;;;;;;;4.80;3.65;;;17.90;99.90;;;;;;4990686;28;20045;-91
2022/09/05 01:22:26;;;;;;;3.97;3.58;;;17.90;99.90;;;;;;5004577;28;20042;-91
2022/09/05 01:25:18;;;;;;;5.95;4.45;;;17.80;99.90;;;;;;5016275;28;20376;-91
2022/09/05 01:28:12;;;;;;;6.50;4.30;;;17.90;99.90;;;;;;4999619;28;20479;-91
2022/09/05 01:30:49;;;;;;;5.60;4.00;;;17.80;99.90;;;;;;4972552;28;20415;-89
2022/09/05 01:33:45;;;;;;;6.45;4.18;;;17.70;99.90;;;;;;5016232;28;20044;-91
2022/09/05 01:36:52;;;;;;;9.48;3.90;;;17.80;99.90;;;;;;4999713;28;20099;-90
2022/09/05 01:39:23;;;;;;;4.13;3.72;;;17.70;99.90;;;;;;4997852;28;20406;-91
2022/09/05 01:42:03;;;;;;;4.38;3.88;;;17.70;99.90;;;;;;4996158;28;20046;-91
2022/09/05 01:44:54;;;;;;;7.57;3.78;;;17.70;99.90;;;;;;5031279;28;20046;-91
2022/09/05 01:47:20;;;;;;;9.45;4.18;;;17.70;99.90;;;;;;4996273;28;20057;-90
2022/09/05 01:49:45;;;;;;;4.28;3.88;;;17.60;99.90;;;;;;4987814;28;20049;-91
2022/09/05 01:52:24;;;;;;;7.13;4.28;;;17.70;99.90;;;;;;4998168;28;20045;-90
2022/09/05 01:54:58;;;;;;;4.90;4.00;;;17.60;99.90;;;;;;5015843;28;20140;-90
2022/09/05 01:57:39;;;;;;;4.43;4.03;;;17.60;99.90;;;;;;4999041;28;20053;-91
2022/09/05 02:00:17;;;;;;;4.72;3.78;;;17.50;99.90;;;;;;4998930;28;20395;-91
2022/09/05 02:03:04;;;;;;;6.38;4.35;;;17.50;99.90;;;;;;5000998;28;20465;-91
2022/09/05 02:05:52;;;;;;;5.40;4.22;;;17.40;99.90;;;;;;5003187;28;20045;-91
2022/09/05 02:08:41;;;;;;;6.28;4.50;;;17.40;99.90;;;;;;5003113;28;20092;-91
2022/09/05 02:11:09;;;;;;;7.18;4.72;;;17.30;99.90;;;;;;5019626;28;20061;-91
2022/09/05 02:13:35;;;;;;;8.13;4.47;;;17.30;99.90;;;;;;5003015;28;20049;-91
2022/09/05 02:16:22;;;;;;;12.02;9.20;;;17.30;99.90;;;;;;5019407;28;20056;-90
2022/09/05 02:18:58;;;;;;;9.80;8.80;;;17.30;99.90;;;;;;5019371;28;20095;-90
2022/09/05 02:21:38;;;;;;;12.98;9.15;;;17.20;99.90;;;;;;5019586;28;20111;-90
2022/09/05 02:24:14;;;;;;;10.38;8.63;;;17.20;99.90;;;;;;5019353;28;20045;-90
2022/09/05 02:27:20;;;;;;;8.32;7.55;;;17.10;99.90;;;;;;5036685;28;20491;-91
2022/09/05 02:30:13;;;;;;;8.73;7.25;;;17.10;99.90;;;;;;5018860;28;20060;-91
2022/09/05 02:33:03;;;;;;;8.15;6.15;;;17.00;99.90;;;;;;5019182;28;20041;-90
2022/09/05 02:35:45;;;;;;;6.73;5.40;;;17.00;99.90;;;;;;4999413;28;20053;-90
2022/09/05 02:38:22;;;;;;;5.50;5.00;;;16.90;99.90;;;;;;5019238;28;20061;-90
2022/09/05 02:40:56;;;;;;;7.38;5.20;;;16.90;99.90;;;;;;5018471;28;20553;-89
2022/09/05 02:43:35;;;;;;;6.20;5.35;;;16.90;99.90;;;;;;5018511;28;20499;-90
2022/09/05 02:46:19;;;;;;;10.00;5.78;;;16.90;99.90;;;;;;4999352;28;20045;-90
2022/09/05 02:48:50;;;;;;;9.38;5.90;;;16.80;99.90;;;;;;4999451;28;20050;-90
2022/09/05 02:51:34;;;;;;;8.50;5.43;;;16.80;99.90;;;;;;4983062;28;20049;-90
2022/09/05 02:54:38;;;;;;;6.50;5.70;;;16.70;99.90;;;;;;5030247;28;20052;-90
2022/09/05 02:57:42;;;;;;;11.77;5.75;;;16.70;99.90;;;;;;4989237;28;20517;-91
2022/09/05 03:00:20;;;;;;;10.45;5.80;;;16.70;99.90;;;;;;4984628;28;20123;-89
2022/09/05 03:03:07;;;;;;;6.30;5.55;;;16.60;99.90;;;;;;5018682;28;20126;-90
2022/09/05 03:06:01;;;;;;;9.13;5.60;;;16.60;99.90;;;;;;4995853;28;20050;-90
2022/09/05 03:08:57;;;;;;;9.15;5.78;;;16.60;99.90;;;;;;5018928;28;20107;-90
2022/09/05 03:11:52;;;;;;;8.18;5.68;;;16.60;99.90;;;;;;4982954;28;20273;-90
2022/09/05 03:14:40;;;;;;;10.13;5.57;;;16.50;99.90;;;;;;4998804;28;20535;-89
2022/09/05 03:17:08;;;;;;;6.38;5.20;;;16.50;99.90;;;;;;4997139;28;20137;-89
2022/09/05 03:19:37;;;;;;;5.55;5.05;;;16.50;99.90;;;;;;4982369;28;20448;-90
2022/09/05 03:22:31;;;;;;;9.77;5.50;;;16.50;99.90;;;;;;4978747;28;20042;-90
2022/09/05 03:25:18;;;;;;;5.90;5.15;;;16.50;99.90;;;;;;4990350;28;20399;-90
2022/09/05 03:28:08;;;;;;;10.35;5.32;;;16.40;99.90;;;;;;4997728;28;20499;-89
2022/09/05 03:31:12;;;;;;;7.03;5.70;;;16.40;99.90;;;;;;4997801;28;20132;-90
2022/09/05 03:33:55;;;;;;;8.75;5.35;;;16.50;99.90;;;;;;4995822;28;20050;-90
2022/09/05 03:36:46;;;;;;;8.73;5.47;;;16.50;99.90;;;;;;4982334;28;20046;-90
2022/09/05 03:39:32;;;;;;;10.68;5.75;;;16.40;99.90;;;;;;4981849;28;20046;-90
2022/09/05 03:42:09;;;;;;;8.45;5.78;;;16.40;99.90;;;;;;4997848;28;20507;-90
2022/09/05 03:44:47;;;;;;;6.38;5.35;;;16.50;99.90;;;;;;4967290;28;20050;-91
2022/09/05 03:47:47;;;;;;;10.07;5.97;;;16.40;99.90;;;;;;4986193;28;20057;-90
2022/09/05 03:50:22;;;;;;;6.70;5.93;;;16.40;99.90;;;;;;4996867;28;20141;-90
2022/09/05 03:53:13;;;;;;;6.68;6.07;;;16.40;99.90;;;;;;4982039;28;20463;-90
2022/09/05 03:56:06;;;;;;;7.93;5.85;;;16.40;99.90;;;;;;4998045;28;20052;-90
2022/09/05 03:58:54;;;;;;;6.47;5.88;;;16.40;99.90;;;;;;4981424;28;20045;-89
2022/09/05 04:01:34;;;;;;;7.22;5.50;;;16.40;99.90;;;;;;4986283;28;20451;-89
2022/09/05 04:04:06;;;;;;;7.20;5.72;;;16.40;99.90;;;;;;4978717;28;20049;-90
2022/09/05 04:06:50;;;;;;;7.40;5.70;;;16.40;99.90;;;;;;5015120;28;20050;-89
2022/09/05 04:10:01;;;;;;;8.73;5.85;;;16.40;99.90;;;;;;5003627;28;20408;-90
2022/09/05 04:12:34;;;;;;;7.70;6.30;;;16.40;99.90;;;;;;4967401;28;20050;-89
2022/09/05 04:15:25;;;;;;;9.48;6.47;;;16.30;99.90;;;;;;5000901;28;20048;-89
2022/09/05 04:17:56;;;;;;;9.13;5.57;;;16.30;99.90;;;;;;5017335;28;20057;-90
2022/09/05 04:20:57;;;;;;;11.02;6.25;;;16.30;99.90;;;;;;5016646;28;20495;-89
2022/09/05 04:24:05;;;;;;;7.93;5.63;;;16.20;99.90;;;;;;5000862;28;20081;-90
2022/09/05 04:26:33;;;;;;;6.80;6.10;;;16.20;99.90;;;;;;5013862;28;20292;-90
2022/09/05 04:29:23;;;;;;;10.93;6.03;;;16.20;99.90;;;;;;4997391;28;20052;-92
2022/09/05 04:32:17;;;;;;;8.50;6.32;;;16.20;99.90;;;;;;4998427;28;20431;-90
2022/09/05 04:34:54;;;;;;;8.10;7.10;;;16.20;99.90;;;;;;5005862;28;20124;-89
2022/09/05 04:37:54;;;;;;;8.27;6.50;;;16.10;99.90;;;;;;5016651;28;20057;-89
2022/09/05 04:40:50;;;;;;;8.90;6.43;;;16.10;99.90;;;;;;4989639;28;20106;-89
2022/09/05 04:43:48;;;;;;;7.68;5.97;;;16.10;99.90;;;;;;4981622;28;20140;-89
2022/09/05 04:46:28;;;;;;;7.88;5.78;;;16.10;99.90;;;;;;4995306;28;20041;-89
2022/09/05 04:49:03;;;;;;;7.22;5.60;;;16.10;99.90;;;;;;5016331;28;20056;-89
2022/09/05 04:51:56;;;;;;;9.15;6.90;;;16.10;99.90;;;;;;5016092;28;20041;-89
2022/09/05 04:54:34;;;;;;;8.25;6.40;;;16.20;99.90;;;;;;5000570;28;20395;-90
2022/09/05 04:57:24;;;;;;;8.05;6.65;;;16.20;99.90;;;;;;4996305;28;20050;-90
2022/09/05 04:59:58;;;;;;;7.60;6.53;;;16.10;99.90;;;;;;4998362;28;20098;-90
2022/09/05 05:02:46;;;;;;;11.23;7.03;;;16.10;99.90;;;;;;5015777;28;20037;-89
2022/09/05 05:05:21;;;;;;;8.85;6.95;;;16.20;99.90;;;;;;5016229;28;20049;-90
2022/09/05 05:08:06;;;;;;;8.45;6.97;;;16.10;99.90;;;;;;5016295;28;20054;-89
2022/09/05 05:10:42;;;;;;;7.97;7.15;;;16.10;99.90;;;;;;5015831;28;20077;-91
2022/09/05 05:13:19;;;;;;;11.90;6.70;;;16.10;99.90;;;;;;5000368;28;20052;-90
2022/09/05 05:16:03;;;;;;;12.05;7.40;;;16.10;99.90;;;;;;5016290;28;20056;-90
2022/09/05 05:18:34;;;;;;;9.32;6.80;;;16.10;99.90;;;;;;5000218;28;20045;-90
2022/09/05 05:21:13;;;;;;;8.45;6.72;;;16.10;99.90;;;;;;5016507;28;20128;-90
2022/09/05 05:23:44;;;;;;;10.20;7.03;;;16.00;99.90;;;;;;5016407;28;20045;-89
2022/09/05 05:26:21;;;;;;;9.30;6.97;;;16.10;99.90;;;;;;5033632;28;20147;-90
2022/09/05 05:28:56;;;;;;;7.20;6.50;;;16.10;99.90;;;;;;4999976;28;20068;-90
2022/09/05 05:31:35;;;;;;;8.27;6.90;;;16.10;99.90;;;;;;5015612;28;20045;-89
2022/09/05 05:34:05;;;;;;;9.52;7.25;;;16.10;99.90;;;;;;5016141;28;20483;-90
2022/09/05 05:36:38;;;;;;;9.07;7.03;;;16.00;99.90;;;;;;4999121;28;20053;-89
2022/09/05 05:39:09;;;;;;;10.88;7.07;;;16.10;99.90;;;;;;5033042;28;20046;-89
2022/09/05 05:41:49;;;;;;;9.27;7.55;;;16.10;99.90;;;;;;4999912;28;20049;-89
2022/09/05 05:44:18;;;;;;;11.82;7.05;;;16.20;99.90;;;;;;5015751;28;20491;-88
2022/09/05 05:46:54;;;;;;;7.93;7.15;;;16.20;99.90;;;;;;5033324;28;20044;-90
2022/09/05 05:49:33;;;;;;;7.70;6.90;;;16.30;99.90;;;;;;4999404;28;20409;-90
2022/09/05 05:52:17;;;;;;;8.38;7.22;;;16.30;99.90;;;;;;5016229;28;20518;-90
2022/09/05 05:55:16;;;;;;;9.50;7.03;;;16.30;99.90;;;;;;4999303;28;20491;-89
2022/09/05 05:58:18;;;;;;;10.30;7.55;;;16.40;99.90;;;;;;4991608;28;20140;-90
2022/09/05 06:00:53;;;;;;;11.50;6.95;;;16.40;99.90;;;;;;4998931;28;20103;-89
2022/09/05 06:04:13;;;;;;;10.00;7.25;;;16.50;99.90;;;;;;5015862;28;20403;-89
2022/09/05 06:07:09;;;;;;;10.82;6.90;;;16.60;99.90;;;;;;4979105;28;20626;-89
2022/09/05 06:09:37;;;;;;;8.27;6.60;;;16.60;99.90;;;;;;5015108;28;20187;-89
2022/09/05 06:12:06;;;;;;;9.75;7.57;;;16.70;99.90;;;;;;5032918;28;20054;-88
2022/09/05 06:14:37;;;;;;;9.57;7.40;;;16.80;99.90;;;;;;5015478;28;20055;-89
2022/09/05 06:17:21;;;;;;;7.70;6.70;;;16.70;99.90;;;;;;5015813;28;20045;-89
2022/09/05 06:19:59;;;;;;;8.98;8.07;;;16.80;99.90;;;;;;5000228;28;20049;-89
2022/09/05 06:22:46;;;;;;;9.93;8.30;;;16.90;99.90;;;;;;4999834;28;20045;-88
2022/09/05 06:25:32;;;;;;;8.18;7.00;;;17.00;99.90;;;;;;5000510;28;20045;-89
2022/09/05 06:28:21;;;;;;;9.52;7.60;;;17.10;99.90;;;;;;5017463;28;20092;-89
2022/09/05 06:31:10;;;;;;;9.80;7.78;;;17.20;99.90;;;;;;5002509;28;20053;-88
2022/09/05 06:34:11;;;;;;;9.93;8.48;;;17.30;99.90;;;;;;4997443;28;20049;-89
2022/09/05 06:37:03;;;;;;;10.00;7.97;;;17.40;99.90;;;;;;5003843;28;20064;-88
2022/09/05 06:40:10;;;;;;;11.77;9.00;;;17.50;99.90;;;;;;5021794;28;20056;-88
2022/09/05 06:43:02;;;;;;;10.40;8.48;;;17.60;99.90;;;;;;5019783;28;20080;-89
2022/09/05 06:45:38;;;;;;;9.05;8.07;;;17.70;99.90;;;;;;4999179;28;20368;-89
2022/09/05 06:48:19;;;;;;;11.15;8.20;;;17.70;99.90;;;;;;5037504;28;20057;-89
2022/09/05 06:50:51;;;;;;;10.15;8.48;;;17.80;99.90;;;;;;5020646;28;20049;-89
2022/09/05 06:53:43;;;;;;;11.73;8.43;;;17.90;99.90;;;;;;5003353;28;20052;-88
2022/09/05 06:56:30;;;;;;;10.50;8.20;;;18.00;99.90;;;;;;4992840;28;20403;-89
2022/09/05 06:59:16;;;;;;;9.90;8.52;;;18.10;99.90;;;;;;5020974;28;20045;-89
2022/09/05 07:02:21;;;;;;;9.23;7.05;;;18.10;99.90;;;;;;5037870;28;20454;-90
2022/09/05 07:05:20;;;;;;;12.68;8.70;;;18.20;99.90;;;;;;5020195;28;20548;-89
2022/09/05 07:07:59;;;;;;;11.30;8.68;;;18.40;99.90;;;;;;5020488;28;20442;-89
2022/09/05 07:10:40;;;;;;;8.77;7.88;;;18.50;99.90;;;;;;5020154;28;20053;-89
2022/09/05 07:13:18;;;;;;;11.65;8.23;;;18.60;99.90;;;;;;5004503;28;20057;-93
2022/09/05 07:16:14;;;;;;;9.05;8.20;;;18.70;99.90;;;;;;5002156;28;20041;-87
2022/09/05 07:19:03;;;;;;;12.20;9.10;;;18.80;99.90;;;;;;5019405;28;20053;-88
2022/09/05 07:21:44;;;;;;;10.57;8.27;;;18.90;99.90;;;;;;5018921;28;20081;-87
2022/09/05 07:24:16;;;;;;;9.32;7.45;;;18.90;99.90;;;;;;5005105;28;20466;-90
2022/09/05 07:26:48;;;;;;;9.80;8.40;;;19.00;99.90;;;;;;5021349;28;20329;-87
2022/09/05 07:29:29;;;;;;;10.00;8.65;;;19.20;99.90;;;;;;5037073;28;20041;-87
2022/09/05 07:31:58;;;;;;;10.38;8.93;;;19.40;99.90;;;;;;5019967;28;20057;-87
2022/09/05 07:34:29;;;;;;;11.93;8.40;;;19.70;99.90;;;;;;5042277;28;20093;-87
2022/09/05 07:36:58;;;;;;;11.30;7.35;;;20.10;99.90;;;;;;5004735;28;20072;-88
2022/09/05 07:39:30;;;;;;;9.02;7.40;;;20.40;99.90;;;;;;5002258;28;20521;-88
2022/09/05 07:42:04;;;;;;;9.48;7.47;;;20.70;99.90;;;;;;5018031;28;20495;-88
2022/09/05 07:44:47;;;;;;;10.80;7.65;;;21.00;99.90;;;;;;5018419;28;20151;-87
2022/09/05 07:47:19;;;;;;;13.13;7.68;;;21.30;99.90;;;;;;5001357;28;20525;-86
2022/09/05 07:49:47;;;;;;;11.63;8.10;;;21.60;99.90;;;;;;5017807;28;20103;-87
2022/09/05 07:52:17;;;;;;;11.45;7.90;;;21.80;99.90;;;;;;5035291;28;20076;-87
2022/09/05 07:54:47;;;;;;;;;;;21.90;99.90;;;;;;5001996;28;20091;-88
2022/09/05 07:57:20;;;;;;;9.95;7.50;;;22.00;99.90;;;;;;5035351;28;20305;-87
2022/09/05 07:59:51;;;;;;;11.40;7.63;;;22.10;99.90;;;;;;5034543;28;20491;-88
2022/09/05 08:02:17;;;;;;;12.30;7.90;;;22.20;99.90;;;;;;5001388;28;20053;-87
2022/09/05 08:04:43;;;;;;;8.13;6.75;;;22.30;99.90;;;;;;5017346;28;20042;-86
2022/09/05 08:07:12;;;;;;;6.82;6.13;;;22.30;99.90;;;;;;5001495;28;20096;-88
2022/09/05 08:09:47;;;;;;;10.32;6.32;;;22.40;99.90;;;;;;4992215;28;20403;-87
2022/09/05 08:12:16;;;;;;;10.70;6.70;;;22.60;99.90;;;;;;4998384;28;20060;-86
2022/09/05 08:15:01;;;;;;;7.13;5.88;;;22.70;99.90;;;;;;4997937;28;20046;-87
2022/09/05 08:17:27;;;;;;;12.48;6.70;;;22.90;99.90;;;;;;4998975;28;20089;-87
2022/09/05 08:19:58;;;;;;;7.03;6.32;;;23.10;99.90;;;;;;4999506;28;20054;-87
2022/09/05 08:22:29;;;;;;;7.97;7.07;;;23.30;99.90;;;;;;4982591;28;20096;-86
2022/09/05 08:24:58;;;;;;;7.80;6.32;;;23.50;99.90;;;;;;5015365;28;20045;-88
2022/09/05 08:27:53;;;;;;;7.63;6.88;;;23.60;99.90;;;;;;4998435;28;20046;-86
2022/09/05 08:30:19;;;;;;;11.52;7.10;;;23.70;99.90;;;;;;5004819;28;20482;-87
2022/09/05 08:33:06;;;;;;;11.73;6.65;;;23.70;99.90;;;;;;4965761;28;20081;-89
2022/09/05 08:35:48;;;;;;;11.40;6.68;;;23.80;99.90;;;;;;4981570;28;20042;-86
2022/09/05 08:38:15;;;;;;;9.77;6.50;;;23.90;99.90;;;;;;4998445;28;20121;-88
2022/09/05 08:41:01;;;;;;;8.70;6.38;;;24.00;99.90;;;;;;4997838;28;20125;-91
2022/09/05 08:43:57;;;;;;;9.10;6.47;;;24.10;99.90;;;;;;5015375;28;20129;-86
2022/09/05 08:46:42;;;;;;;7.80;6.45;;;24.40;99.90;;;;;;4981110;28;20085;-87
2022/09/05 08:49:37;;;;;;;6.60;5.93;;;24.60;99.90;;;;;;4997323;28;20130;-88
2022/09/05 08:52:08;;;;;;;12.43;5.20;;;25.10;99.90;;;;;;5017512;28;20046;-87
2022/09/05 08:54:39;;;;;;;7.55;5.60;;;25.60;99.90;;;;;;4981464;28;20042;-87
2022/09/05 08:57:16;;;;;;;6.75;4.97;;;26.30;94.60;;;;;;4997225;28;20049;-87
2022/09/05 09:00:03;;;;;;;6.63;5.40;;;27.10;90.80;;;;;;5013982;28;20037;-86
2022/09/05 09:02:47;;;;;;;9.13;5.72;;;27.80;75.20;;;;;;5014556;28;20173;-88
2022/09/05 09:05:25;;;;;;;7.13;5.50;;;28.60;70.70;;;;;;4997117;28;20045;-87
2022/09/05 09:07:56;;;;;;;6.03;5.30;;;29.20;67.60;;;;;;4998503;28;20053;-87
2022/09/05 09:10:41;;;;;;;6.80;4.85;;;29.40;66.00;;;;;;4996809;28;20057;-86
2022/09/05 09:13:29;;;;;;;11.07;5.00;;;29.60;64.70;;;;;;4980465;28;20096;-88
2022/09/05 09:16:18;;;;;;;7.82;5.38;;;30.00;64.00;;;;;;4980474;28;20049;-88
2022/09/05 09:18:46;;;;;;;9.65;5.38;;;30.10;62.20;;;;;;4996666;28;20050;-88
2022/09/05 09:21:37;;;;;;;7.85;5.35;;;30.50;60.50;;;;;;4980589;28;20085;-89
2022/09/05 09:24:18;;;;;;;8.60;4.78;;;30.70;59.50;;;;;;4996674;28;20069;-89
2022/09/05 09:26:53;;;;;;;6.55;5.68;;;31.10;60.20;;;;;;4996947;28;20081;-87
2022/09/05 09:29:20;;;;;;;5.28;4.40;;;31.30;56.80;;;;;;4980764;28;20225;-89
2022/09/05 09:32:09;;;;;;;6.97;4.88;;;31.40;58.00;;;;;;4996897;28;20052;-91
2022/09/05 09:34:37;;;;;;;9.07;5.63;;;31.50;58.70;;;;;;4996482;28;20053;-89
2022/09/05 09:37:21;;;;;;;9.13;4.60;;;31.60;55.80;;;;;;4996676;28;20432;-89
2022/09/05 09:40:18;;;;;;;8.70;5.28;;;31.50;56.30;;;;;;4997306;28;20054;-89
2022/09/05 09:42:54;;;;;;;7.40;5.38;;;31.40;56.80;;;;;;4980455;28;20049;-89
2022/09/05 09:45:34;;;;;;;6.90;4.15;;;31.40;55.80;;;;;;5014333;28;20038;-88
2022/09/05 09:48:08;;;;;;;8.75;4.70;;;31.50;56.60;;;;;;4996558;28;20052;-87
2022/09/05 09:51:08;;;;;;;4.80;3.92;;;31.80;55.70;;;;;;4997441;28;20053;-88
2022/09/05 09:53:46;;;;;;;3.65;3.03;;;32.20;55.70;;;;;;4980183;28;20060;-87
2022/09/05 09:56:34;;;;;;;6.05;3.28;;;32.60;54.80;;;;;;4980838;28;20500;-88
2022/09/05 09:59:22;;;;;;;10.38;3.72;;;32.80;53.80;;;;;;4996555;28;20507;-88
2022/09/05 10:02:10;;;;;;;7.28;3.58;;;33.00;53.60;;;;;;4995908;28;20161;-87
2022/09/05 10:05:13;;;;;;;4.25;3.40;;;33.20;52.90;;;;;;4996827;28;20130;-89
2022/09/05 10:07:53;;;;;;;9.57;3.65;;;33.30;52.70;;;;;;4996816;28;20085;-90
2022/09/05 10:10:34;;;;;;;6.82;3.40;;;33.30;52.50;;;;;;4982291;28;20104;-90
2022/09/05 10:13:29;;;;;;;4.53;2.78;;;33.30;51.40;;;;;;5014309;28;20065;-89
2022/09/05 10:16:25;;;;;;;6.18;3.13;;;33.30;51.10;;;;;;4998260;28;20450;-90
2022/09/05 10:19:29;;;;;;;5.97;3.28;;;33.20;50.70;;;;;;4997437;28;20052;-87
2022/09/05 10:22:26;;;;;;;5.00;3.40;;;33.10;49.20;;;;;;4981624;28;20066;-87
2022/09/05 10:25:18;;;;;;;8.10;3.38;;;33.10;50.90;;;;;;4999500;28;20410;-88
2022/09/05 10:28:14;;;;;;;8.68;2.97;;;33.50;52.20;;;;;;4991050;28;20061;-89
2022/09/05 10:31:04;;;;;;;7.50;3.10;;;33.80;51.60;;;;;;5000819;28;20057;-87
2022/09/05 10:33:32;;;;;;;;;;;34.20;49.50;;;;;;5002057;28;20061;-87
2022/09/05 10:36:04;;;;;;;9.60;2.72;;;34.90;50.70;;;;;;5001695;28;19928;-89
2022/09/05 10:38:44;;;;;;;5.47;2.47;;;35.40;49.20;;;;;;5020121;28;20113;-88
2022/09/05 10:41:14;;;;;;;3.55;2.47;;;36.10;47.30;;;;;;5019119;28;20403;-87
2022/09/05 10:43:49;;;;;;;;;;;36.70;46.20;;;;;;4991673;28;20112;-90
2022/09/05 10:46:41;;;;;;;5.13;2.92;;;37.40;44.30;;;;;;5012185;28;19922;-87
2022/09/05 10:49:12;;;;;;;3.00;2.60;;;37.60;44.40;;;;;;5002532;28;20068;-88
2022/09/05 10:51:59;;;;;;;4.05;2.55;;;37.70;43.40;;;;;;5006022;28;20038;-87
2022/09/05 10:55:01;;;;;;;6.82;2.88;;;38.00;43.20;;;;;;5026615;28;20128;-87
2022/09/05 10:57:54;;;;;;;5.32;2.22;;;38.30;43.30;;;;;;5023477;28;20049;-87
2022/09/05 11:00:53;;;;;;;5.05;2.40;;;38.50;43.10;;;;;;5019874;28;20073;-86
2022/09/05 11:03:31;;;;;;;6.03;2.53;;;38.70;42.10;;;;;;5007575;28;20088;-86
2022/09/05 11:06:04;;;;;;;4.25;2.30;;;39.00;41.80;;;;;;5003555;28;20054;-87
2022/09/05 11:09:02;;;;;;;3.92;2.17;;;39.00;41.70;;;;;;5018931;28;20129;-91
2022/09/05 11:11:38;;;;;;;5.55;2.22;;;38.90;41.80;;;;;;5018997;28;20044;-86
2022/09/05 11:14:29;;;;;;;6.95;2.22;;;38.70;41.20;;;;;;5036962;28;20049;-88
2022/09/05 11:17:23;;;;;;;6.93;3.03;;;38.60;41.00;;;;;;5036202;28;20115;-88
2022/09/05 11:19:58;;;;;;;2.67;2.17;;;38.40;40.20;;;;;;5028192;28;20118;-87
2022/09/05 11:22:29;;;;;;;5.88;2.17;;;38.30;40.30;;;;;;5018609;28;20049;-88
2022/09/05 11:24:58;;;;;;;4.97;2.25;;;38.40;40.70;;;;;;5018644;28;20053;-87
2022/09/05 11:27:42;;;;;;;4.13;2.20;;;38.20;40.00;;;;;;5001989;28;20053;-89
2022/09/05 11:30:16;;;;;;;5.70;2.05;;;38.10;41.00;;;;;;5035562;28;20526;-86
2022/09/05 11:33:19;;;;;;;5.78;2.13;;;37.90;40.50;;;;;;5020300;28;20042;-87
2022/09/05 11:36:12;;;;;;;4.20;2.40;;;37.60;39.80;;;;;;5018143;28;20048;-90
2022/09/05 11:39:20;;;;;;;3.63;2.30;;;37.40;41.00;;;;;;4998586;28;20097;-94
2022/09/05 11:42:08;;;;;;;4.20;2.00;;;36.90;41.20;;;;;;5033028;28;20049;-89
2022/09/05 11:45:08;;;;;;;5.30;2.33;;;36.40;41.20;;;;;;5036262;28;20495;-91
2022/09/05 11:48:02;;;;;;;3.72;2.38;;;35.90;41.90;;;;;;5018550;28;20494;-86
2022/09/05 11:50:40;;;;;;;4.10;2.40;;;35.40;42.30;;;;;;5018150;28;20045;-88
2022/09/05 11:53:05;;;;;;;3.40;2.50;;;34.70;44.00;;;;;;5018064;28;20098;-88
2022/09/05 11:55:53;;;;;;;4.70;2.20;;;34.40;44.00;;;;;;5001865;28;20092;-88
2022/09/05 11:58:39;;;;;;;4.22;1.90;;;34.20;44.40;;;;;;5017986;28;20049;-88
2022/09/05 12:01:51;;;;;;;3.22;2.28;;;33.40;44.80;;;;;;5034649;28;20495;-87
2022/09/05 12:04:32;;;;;;;3.60;2.40;;;32.80;44.60;;;;;;4995530;28;20523;-86
2022/09/05 12:07:10;;;;;;;2.58;1.92;;;32.90;46.40;;;;;;5001139;28;20395;-88
2022/09/05 12:09:55;;;;;;;2.17;1.95;;;33.40;45.30;;;;;;5017335;28;20064;-86
2022/09/05 12:13:03;;;;;;;5.03;1.73;;;33.60;45.00;;;;;;5017931;28;20387;-88
2022/09/05 12:15:33;;;;;;;3.70;2.00;;;33.60;44.40;;;;;;4981311;28;20531;-86
2022/09/05 12:17:59;;;;;;;;;;;33.60;45.20;;;;;;5018557;28;20045;-88
2022/09/05 12:20:57;;;;;;;8.52;2.22;;;34.10;44.10;;;;;;5017795;28;19921;-87
2022/09/05 12:23:48;;;;;;;5.05;1.70;;;34.90;42.90;;;;;;5017198;28;20056;-86
2022/09/05 12:26:35;;;;;;;4.65;1.67;;;35.20;42.60;;;;;;5017541;28;20053;-87
2022/09/05 12:29:07;;;;;;;2.13;1.60;;;35.40;42.50;;;;;;5035437;28;20057;-89
2022/09/05 12:31:43;;;;;;;2.47;1.80;;;35.40;42.70;;;;;;5033739;28;20380;-87
2022/09/05 12:34:17;;;;;;;3.08;2.13;;;35.20;42.00;;;;;;5018294;28;20046;-87
2022/09/05 12:36:48;;;;;;;5.38;1.85;;;34.90;42.20;;;;;;5020494;28;20053;-86
2022/09/05 12:39:33;;;;;;;3.53;1.83;;;34.40;43.00;;;;;;5036907;28;20046;-87
2022/09/05 12:42:32;;;;;;;4.47;1.75;;;34.00;43.70;;;;;;5003517;28;20402;-88
2022/09/05 12:45:12;;;;;;;3.40;1.52;;;33.70;44.70;;;;;;5035852;28;20060;-87
2022/09/05 12:48:00;;;;;;;2.45;1.60;;;33.90;44.60;;;;;;5036088;28;20041;-86
2022/09/05 12:51:02;;;;;;;3.17;1.60;;;33.90;45.00;;;;;;5034169;28;20049;-85
2022/09/05 12:53:48;;;;;;;2.90;1.55;;;33.40;43.70;;;;;;5014824;28;20502;-87
2022/09/05 12:56:40;;;;;;;6.13;1.92;;;32.60;45.30;;;;;;5016252;28;20049;-88
2022/09/05 12:59:17;;;;;;;2.47;1.92;;;32.00;45.80;;;;;;4998829;28;20053;-88
2022/09/05 13:01:44;;;;;;;6.38;1.73;;;31.60;46.30;;;;;;5015981;28;20084;-87
2022/09/05 13:04:20;;;;;;;2.58;1.70;;;31.10;46.90;;;;;;5000002;28;20049;-87
2022/09/05 13:07:01;;;;;;;3.65;1.60;;;30.80;48.10;;;;;;5033837;28;20398;-87
2022/09/05 13:09:46;;;;;;;2.95;1.90;;;30.50;49.10;;;;;;5015962;28;20053;-87
2022/09/05 13:12:35;;;;;;;3.60;1.60;;;30.40;47.90;;;;;;5016403;28;20464;-86
2022/09/05 13:15:10;;;;;;;6.88;2.10;;;30.30;47.80;;;;;;5016107;28;20060;-87
2022/09/05 13:17:58;;;;;;;7.55;1.90;;;30.20;48.90;;;;;;4998682;28;20050;-88
2022/09/05 13:20:35;;;;;;;3.33;1.70;;;30.30;49.70;;;;;;4999890;28;20147;-89
2022/09/05 13:23:11;;;;;;;3.83;1.60;;;30.30;49.60;;;;;;5033456;28;20430;-87
2022/09/05 13:25:41;;;;;;;2.05;1.60;;;30.40;49.40;;;;;;5015837;28;20442;-86
2022/09/05 13:28:12;;;;;;;3.38;2.00;;;30.30;48.80;;;;;;5016129;28;20135;-87
2022/09/05 13:30:59;;;;;;;2.65;1.67;;;30.40;48.80;;;;;;4999628;28;20077;-87
2022/09/05 13:33:47;;;;;;;3.47;1.38;;;30.40;48.50;;;;;;5015823;28;20569;-87
2022/09/05 13:36:26;;;;;;;3.00;1.50;;;30.40;48.90;;;;;;5015679;28;20400;-86
2022/09/05 13:38:54;;;;;;;2.05;1.60;;;30.30;48.90;;;;;;5016282;28;20049;-86
2022/09/05 13:41:28;;;;;;;3.70;1.98;;;30.30;49.10;;;;;;5016038;28;20142;-88
2022/09/05 13:43:55;;;;;;;4.80;1.90;;;30.30;48.70;;;;;;5034897;28;20037;-87
2022/09/05 13:46:42;;;;;;;3.78;1.73;;;30.30;49.70;;;;;;5016050;28;20113;-87
2022/09/05 13:49:35;;;;;;;3.05;1.70;;;30.40;49.50;;;;;;5000785;28;20376;-86
2022/09/05 13:52:24;;;;;;;3.83;1.77;;;30.50;48.00;;;;;;5034046;28;20063;-86
2022/09/05 13:55:00;;;;;;;3.67;1.63;;;30.50;48.20;;;;;;5015423;28;20099;-86
2022/09/05 13:57:33;;;;;;;4.15;1.77;;;30.50;49.30;;;;;;5032735;28;20406;-86
2022/09/05 14:00:17;;;;;;;2.90;1.60;;;30.60;48.40;;;;;;5036249;28;20210;-89
2022/09/05 14:03:10;;;;;;;3.53;1.77;;;30.70;48.50;;;;;;5003537;28;20049;-87
2022/09/05 14:06:01;;;;;;;4.28;1.90;;;30.60;48.50;;;;;;5003650;28;20486;-89